CYBB

Details ICAO CYBB (YBB)
Name KUGAARUK
Region Canada
Timezone America/Cambridge_Bay (UTC-7.0)
Plans Departing 6
Arriving 8
Stats Elevation 56 ft / 17 m (AMSL)
Location 68.534443° -89.808055°
Runways 1
Magnetic Variation 16.791° W
Sunrise Unknown / Unknown
Sunset Unknown / Unknown
Advertisement - Login to hide

Runways

ID Width Length Bearing (true) Bearing (mag) Surface Threshold Offset Overrun Length
05T 100 ft / 30 m 4,982 ft / 1,519 m 49.38° 66.17° Gravel 0 ft / 0 m 0 ft / 0 m
23T 100 ft / 30 m 4,982 ft / 1,519 m 229.41° 246.20° Gravel 0 ft / 0 m 0 ft / 0 m

Map

Weather


0- 5 10 15 20 25 30 35+ Temperature / ° C

Clouds and Precipitation
Forecast for 2017-12-16 00:00 UTC. Updated an hour ago

Ground ~20,000 ft ~40,000 ft Winds

METAR

CYBB 152200Z 24009KT 5SM IC BKN026 M24/M27 A2988 RMK SC7 SLP122

TAF

TAF CYBB 151846Z 1519/1524 24010KT P6SM SCT025 BKN130 TEMPO 1519/1524 5SM IC BKN025 RMK NXT FCST WILL BE ISSUED AT 161745Z

Frequencies

Unicom 122.10 MHz MANDATORY FREQ
Warning: Do not use this data for real-world aviation or navigation. No guarantee of current accuracy is given.